aviador You're here:

PAKF Decoded Metar

FALSE PASS in AK, US
Report Time2017-07-21 02:26:00
UTC Time2017-07-21 02:53:03
Flight Rules vfr VFR
Wind300° at 14 Gusting to 22 kt
W.Decomp.*RWY 32: 11.3 kt HW 8.2 kt LCW
W.Rank300° ranks 4
Current wind is above 300° avg. (12.4)
Visibility9999 m
Phenomena:N/A
Clouds:Scattered 027 Hf
Expected CloudBase > 2,800 ft AGL from Temp-Dew spread
CeilingNone
Temp17°C (ISA +2)
Dew Point10°C (64% RH)
AAT12.0°C
QNH1012 hPa
Density Alt459 ft
Elevation19 ft
Report Wrong Elevation
Raw Report
PAKF 210226Z AUTO 30014G22KT 10SM SCT027 17/10 A2989 RMK AO2 $=

Extra information for PAKF:More info

Metar Taf Metar & Taf Last 4 Metars F.Rules Stats Wind Profile Meteogram Temp Stats Airport Information Weather charts Add Link Nearby VenuesMetar ALERT Operation Metar Decoded Social comments